»·PEaware :: SKY824 KORS-KEAT

SKY824 :: KORS-KEAT

FLIGHT INFORMATION

Flight Status: Arrived
Operator:
Sky High Charters
More flights by this operator :: More flights under this callsign
Pilot: Andrew S. (20703)
Aircraft: SOCATA TBM-900
(TBM9)
More flights by this aircraft type
Origin: KORS Orcas I
United States
Destination: KEAT Pangborn Meml
United States
More flights between these airports :: More routes between these airports
Route: +BEZOV V23 SEA V120 EAT
File this flight plan on PilotEdge
Remarks:
Altitude:
(Current/Filed)
16,000ft
Speed:
(Current/Filed)
315kts
Departed: 06-May-19 05:52 PM
Arrived: 06-May-19 06:41 PM
Distance/Time
Traveled:
134nm/0:49
Distance/Time
To Go:
Arrived

Flight Plot

Page will automatically refresh every two minutes.

Flight plan parsing failed; only flown route is shown


Map Options




Map Legend


Flown Route
Filed Route
Departure Airport
Arrival Airport
Navaid (VOR, NDB)
Fix

Horizontal Profiles

Position Reports

Time Latitude Longitude Heading Altitude Ground
Speed
06-May-19 17:34 48.709706 -122.909368 233 16ft 0kts
06-May-19 17:35 48.709706 -122.909368 233 16ft 0kts
06-May-19 17:36 48.709706 -122.909368 233 16ft 0kts
06-May-19 17:37 48.709706 -122.909368 233 16ft 0kts
06-May-19 17:38 48.709706 -122.909368 233 16ft 0kts
06-May-19 17:39 48.709706 -122.909368 233 16ft 0kts
06-May-19 17:40 48.709706 -122.909368 233 16ft 0kts
06-May-19 17:41 48.709706 -122.909368 233 16ft 0kts
06-May-19 17:42 48.709652 -122.909525 253 16ft 0kts
06-May-19 17:43 48.709652 -122.909525 253 16ft 0kts
06-May-19 17:44 48.709652 -122.909525 253 16ft 0kts
06-May-19 17:45 48.710345 -122.909993 0 14ft 9kts
06-May-19 17:46 48.711016 -122.909983 2 13ft 0kts
06-May-19 17:47 48.711240 -122.909972 359 13ft 8kts
06-May-19 17:48 48.711940 -122.909987 349 13ft 0kts
06-May-19 17:49 48.711945 -122.909988 349 13ft 0kts
06-May-19 17:50 48.712208 -122.910543 227 13ft 4kts
06-May-19 17:51 48.707628 -122.910607 179 26ft 106kts
06-May-19 17:52 48.674523 -122.905374 171 2678ft 126kts
06-May-19 17:53 48.644417 -122.886361 105 5371ft 129kts
06-May-19 17:54 48.632579 -122.833758 107 7770ft 138kts
06-May-19 17:55 48.618814 -122.778277 108 9945ft 146kts
06-May-19 17:56 48.603944 -122.719724 107 12257ft 155kts
06-May-19 17:57 48.588217 -122.658134 106 14699ft 162kts
06-May-19 17:58 48.567131 -122.575573 108 15047ft 252kts
06-May-19 17:59 48.538763 -122.470988 125 15000ft 282kts
06-May-19 18:00 48.464343 -122.436313 169 15040ft 286kts
06-May-19 18:01 48.385954 -122.413322 169 15039ft 287kts
06-May-19 18:02 48.307009 -122.390195 169 15037ft 288kts
06-May-19 18:03 48.227979 -122.367115 169 15029ft 288kts
06-May-19 18:04 48.149256 -122.344191 170 15028ft 288kts
06-May-19 18:05 48.070320 -122.321285 170 15004ft 288kts
06-May-19 18:06 47.991486 -122.298473 170 14984ft 288kts
06-May-19 18:07 47.913338 -122.272792 149 14953ft 290kts
06-May-19 18:08 47.888868 -122.166141 104 14985ft 283kts
06-May-19 18:09 47.863063 -122.054371 107 14978ft 284kts
06-May-19 18:10 47.836195 -121.943390 107 14968ft 284kts
06-May-19 18:11 47.809141 -121.832664 107 14968ft 284kts
06-May-19 18:12 47.781966 -121.721408 107 14986ft 284kts
06-May-19 18:13 47.754750 -121.609868 106 15018ft 290kts
06-May-19 18:14 47.726718 -121.495301 107 15039ft 295kts
06-May-19 18:15 47.698119 -121.380669 107 15166ft 294kts
06-May-19 18:16 47.670194 -121.268622 107 15164ft 296kts
06-May-19 18:17 47.635956 -121.156567 114 15164ft 298kts
06-May-19 18:18 47.599676 -121.045045 116 15166ft 298kts
06-May-19 18:19 47.563559 -120.934729 117 15159ft 296kts
06-May-19 18:20 47.527608 -120.825380 117 15093ft 289kts
06-May-19 18:21 47.493164 -120.720986 117 15035ft 275kts
06-May-19 18:23 47.457882 -120.614482 117 13803ft 295kts
06-May-19 18:24 47.422227 -120.507293 116 12507ft 297kts
06-May-19 18:25 47.402576 -120.392347 94 10733ft 280kts
06-May-19 18:26 47.397413 -120.290065 96 8036ft 242kts
06-May-19 18:27 47.394002 -120.196921 87 6367ft 218kts
06-May-19 18:28 47.414739 -120.103504 58 6382ft 254kts
06-May-19 18:29 47.468070 -120.031839 27 5862ft 269kts
06-May-19 18:30 47.541302 -120.010816 355 5385ft 270kts
06-May-19 18:31 47.605636 -120.057593 309 5375ft 261kts
06-May-19 18:32 47.624696 -120.158730 260 5178ft 261kts
06-May-19 18:33 47.593323 -120.241245 218 5166ft 213kts
06-May-19 18:34 47.552803 -120.275738 206 4658ft 144kts
06-May-19 18:35 47.514913 -120.305635 206 3954ft 141kts
06-May-19 18:36 47.486349 -120.318588 174 3320ft 108kts
06-May-19 18:37 47.460287 -120.297528 135 2725ft 105kts
06-May-19 18:38 47.441390 -120.269800 134 2233ft 86kts
06-May-19 18:39 47.424227 -120.244681 135 1763ft 82kts
06-May-19 18:40 47.407736 -120.220162 133 1362ft 82kts
06-May-19 18:41 47.398766 -120.204702 92 1252ft 20kts
06-May-19 18:42 47.399396 -120.204529 8 1252ft 9kts

Navigation Log

Ident Type
Flight plan parsing failed, navigation log unavailable